createdAt,value
2019-03-13T00:00:16.015Z,0.30
2019-03-13T00:02:46.078Z,0.30
2019-03-13T00:05:15.686Z,0.93
2019-03-13T00:07:44.845Z,1.37
2019-03-13T00:10:14.912Z,1.70
2019-03-13T00:12:49.258Z,0.33
2019-03-13T00:15:19.023Z,0.70
2019-03-13T00:17:48.661Z,0.30
2019-03-13T00:20:17.844Z,0.80
2019-03-13T00:22:47.881Z,0.50
2019-03-13T00:25:17.367Z,2.00
2019-03-13T00:27:47.385Z,0.50
2019-03-13T00:30:16.571Z,0.50
2019-03-13T00:32:46.045Z,0.67
2019-03-13T00:35:15.524Z,0.60
2019-03-13T00:37:52.115Z,0.50
2019-03-13T00:40:21.919Z,0.60
2019-03-13T00:42:54.825Z,1.33
2019-03-13T00:45:29.129Z,0.60
2019-03-13T00:47:59.066Z,0.80
2019-03-13T00:50:30.485Z,0.83
2019-03-13T00:52:59.654Z,0.97
2019-03-13T00:55:28.852Z,1.20
2019-03-13T00:57:58.355Z,1.73
2019-03-13T01:00:48.648Z,1.83
2019-03-13T01:03:41.894Z,1.40
2019-03-13T01:06:22.086Z,1.50
2019-03-13T01:08:53.064Z,1.73
2019-03-13T01:11:23.323Z,1.60
2019-03-13T01:13:53.780Z,2.87
2019-03-13T01:16:22.961Z,2.63
2019-03-13T01:18:53.142Z,1.70
2019-03-13T01:21:25.761Z,2.43
2019-03-13T01:23:55.190Z,2.10
2019-03-13T01:26:24.390Z,4.50
2019-03-13T01:29:04.383Z,1.53
2019-03-13T01:32:00.057Z,2.53
2019-03-13T01:34:37.668Z,2.43
2019-03-13T01:37:06.838Z,3.17
2019-03-13T01:39:36.284Z,2.37
2019-03-13T01:42:06.248Z,2.03
2019-03-13T01:44:40.728Z,1.70
2019-03-13T01:47:11.138Z,2.50
2019-03-13T01:49:43.115Z,1.47
2019-03-13T01:52:12.293Z,1.50
2019-03-13T01:54:42.024Z,1.80
2019-03-13T01:57:14.006Z,2.80
2019-03-13T01:59:44.451Z,2.43
2019-03-13T02:02:14.640Z,1.63
2019-03-13T02:04:44.718Z,1.60
2019-03-13T02:07:14.963Z,1.80
2019-03-13T02:09:46.242Z,2.60
2019-03-13T02:12:20.164Z,3.03
2019-03-13T02:14:51.733Z,1.40
2019-03-13T02:17:21.480Z,2.50
2019-03-13T02:19:51.006Z,2.00
2019-03-13T02:22:21.831Z,2.43
2019-03-13T02:24:54.083Z,2.07
2019-03-13T02:27:22.801Z,1.27
2019-03-13T02:29:52.237Z,1.13
2019-03-13T02:32:21.710Z,2.23
2019-03-13T02:34:51.136Z,2.93
2019-03-13T02:37:20.603Z,2.23
2019-03-13T02:39:49.787Z,0.97
2019-03-13T02:42:20.052Z,2.70
2019-03-13T02:44:52.719Z,3.60
2019-03-13T02:47:23.895Z,2.93
2019-03-13T02:49:53.341Z,1.83
2019-03-13T02:52:22.528Z,2.53
2019-03-13T02:54:52.278Z,4.03
2019-03-13T02:57:22.030Z,2.20
2019-03-13T02:59:51.724Z,2.60
2019-03-13T03:02:34.112Z,1.70
2019-03-13T03:05:04.952Z,2.07
2019-03-13T03:07:34.506Z,2.80
2019-03-13T03:10:04.379Z,3.57
2019-03-13T03:12:35.234Z,0.80
2019-03-13T03:15:08.910Z,5.23
2019-03-13T03:17:38.862Z,3.80
2019-03-13T03:20:12.759Z,3.30
2019-03-13T03:22:42.165Z,2.03
2019-03-13T03:25:12.454Z,3.23
2019-03-13T03:27:42.801Z,2.47
2019-03-13T03:30:16.756Z,1.87
2019-03-13T03:32:47.004Z,2.40
2019-03-13T03:35:21.685Z,4.13
2019-03-13T03:37:51.467Z,1.23
2019-03-13T03:40:23.297Z,1.53
2019-03-13T03:42:52.934Z,2.30
2019-03-13T03:45:22.454Z,2.50
2019-03-13T03:47:51.581Z,3.03
2019-03-13T03:50:21.253Z,3.03
2019-03-13T03:52:50.680Z,1.60
2019-03-13T03:55:21.677Z,6.07
2019-03-13T03:57:51.541Z,2.53
2019-03-13T04:00:21.726Z,2.40
2019-03-13T04:02:51.179Z,3.50
2019-03-13T04:05:22.409Z,4.10
2019-03-13T04:07:52.412Z,1.50
2019-03-13T04:10:21.862Z,1.03
2019-03-13T04:12:51.303Z,3.27
2019-03-13T04:15:20.730Z,2.90
2019-03-13T04:17:49.894Z,2.73
2019-03-13T04:20:20.334Z,2.13
2019-03-13T04:22:49.858Z,4.87
2019-03-13T04:25:37.661Z,2.27
2019-03-13T04:28:07.447Z,1.67
2019-03-13T04:30:37.161Z,2.53
2019-03-13T04:33:06.869Z,0.60
2019-03-13T04:35:36.080Z,1.93
2019-03-13T04:38:05.517Z,3.43
2019-03-13T04:40:36.585Z,2.13
2019-03-13T04:43:09.109Z,3.53
2019-03-13T04:45:38.558Z,2.43
2019-03-13T04:48:08.192Z,1.60
2019-03-13T04:50:37.706Z,4.20
2019-03-13T04:53:07.132Z,3.27
2019-03-13T04:55:36.585Z,2.23
2019-03-13T04:58:06.091Z,3.03
2019-03-13T05:00:40.870Z,4.90
2019-03-13T05:03:10.834Z,2.20
2019-03-13T05:05:48.898Z,3.50
2019-03-13T05:08:45.448Z,3.90
2019-03-13T05:11:13.908Z,1.77
2019-03-13T05:13:43.326Z,1.77
2019-03-13T05:16:12.774Z,3.67
2019-03-13T05:18:42.287Z,5.27
2019-03-13T05:21:11.482Z,3.13
2019-03-13T05:23:42.610Z,7.30
2019-03-13T05:26:11.819Z,4.77
2019-03-13T05:28:41.756Z,4.67
2019-03-13T05:31:15.232Z,3.27
2019-03-13T05:33:45.191Z,3.67
2019-03-13T05:36:16.769Z,6.33
2019-03-13T05:38:46.126Z,2.73
2019-03-13T05:41:16.054Z,3.80
2019-03-13T05:43:45.239Z,4.20
2019-03-13T05:46:17.145Z,4.40
2019-03-13T05:48:46.658Z,5.77
2019-03-13T05:51:16.359Z,3.80
2019-03-13T05:53:46.456Z,3.13
2019-03-13T05:56:17.926Z,3.03
2019-03-13T05:58:50.700Z,4.80
2019-03-13T06:01:20.699Z,4.33
2019-03-13T06:03:51.205Z,3.53
2019-03-13T06:06:22.972Z,3.40
2019-03-13T06:08:52.636Z,6.27
2019-03-13T06:11:21.899Z,5.03
2019-03-13T06:14:08.278Z,5.77
2019-03-13T06:16:38.877Z,4.80
2019-03-13T06:19:08.121Z,4.40
2019-03-13T06:21:37.541Z,4.03
2019-03-13T06:24:07.761Z,3.33
2019-03-13T06:26:36.945Z,6.07
2019-03-13T06:29:06.876Z,5.10
2019-03-13T06:31:39.313Z,3.33
2019-03-13T06:34:11.504Z,4.23
2019-03-13T06:36:42.983Z,5.37
2019-03-13T06:39:12.501Z,3.47
2019-03-13T06:41:42.012Z,6.17
2019-03-13T06:44:11.221Z,4.87
2019-03-13T06:46:41.000Z,5.27
2019-03-13T06:49:14.235Z,6.77
2019-03-13T06:51:45.940Z,4.10
2019-03-13T06:54:16.472Z,3.80
2019-03-13T06:56:54.142Z,5.07
2019-03-13T06:59:31.421Z,7.53
2019-03-13T07:02:30.765Z,3.20
2019-03-13T07:05:13.281Z,8.37
2019-03-13T07:08:04.330Z,4.63
2019-03-13T07:10:42.977Z,6.00
2019-03-13T07:13:22.793Z,4.70
2019-03-13T07:16:06.465Z,3.70
2019-03-13T07:18:44.555Z,2.00
2019-03-13T07:21:29.600Z,3.57
2019-03-13T07:24:05.788Z,6.03
2019-03-13T07:26:43.614Z,5.80
2019-03-13T07:29:34.801Z,6.47
2019-03-13T07:32:18.766Z,4.03
2019-03-13T07:35:05.727Z,2.97
2019-03-13T07:38:06.299Z,3.47
2019-03-13T07:40:54.519Z,3.40
2019-03-13T07:43:40.646Z,4.77
2019-03-13T07:46:25.593Z,5.40
2019-03-13T07:49:19.816Z,9.03
2019-03-13T07:51:57.008Z,8.97
2019-03-13T07:54:45.233Z,5.30
2019-03-13T07:57:33.477Z,7.47
2019-03-13T08:00:30.404Z,5.77
2019-03-13T08:03:10.534Z,8.23
2019-03-13T08:05:48.149Z,8.53
2019-03-13T08:08:39.399Z,6.73
2019-03-13T08:11:30.482Z,7.43
2019-03-13T08:14:22.362Z,9.07
2019-03-13T08:17:04.423Z,7.77
2019-03-13T08:20:03.030Z,6.17
2019-03-13T08:22:51.457Z,9.43
2019-03-13T08:25:39.609Z,10.23
2019-03-13T08:28:34.249Z,8.60
2019-03-13T08:31:18.271Z,9.50
2019-03-13T08:34:07.934Z,7.67
2019-03-13T08:37:05.736Z,8.17
2019-03-13T08:39:54.996Z,5.93
2019-03-13T08:42:53.752Z,7.57
2019-03-13T08:45:39.800Z,8.07
2019-03-13T08:48:43.123Z,7.93
2019-03-13T08:51:20.497Z,5.43
2019-03-13T08:54:19.847Z,9.30
2019-03-13T08:57:17.059Z,6.33
2019-03-13T09:00:14.452Z,7.60
2019-03-13T09:02:53.735Z,6.93
2019-03-13T09:05:42.974Z,4.43
2019-03-13T09:08:31.809Z,5.00
2019-03-13T09:11:23.573Z,6.43
2019-03-13T09:14:12.816Z,6.80
2019-03-13T09:17:01.557Z,7.57
2019-03-13T09:19:37.348Z,8.00
2019-03-13T09:22:20.174Z,7.67
2019-03-13T09:24:56.661Z,5.43
2019-03-13T09:27:45.473Z,4.40
2019-03-13T09:30:36.718Z,6.33
2019-03-13T09:33:27.657Z,8.20
2019-03-13T09:36:22.236Z,4.47
2019-03-13T09:39:06.436Z,4.77
2019-03-13T09:41:55.137Z,7.47
2019-03-13T09:44:39.406Z,7.37
2019-03-13T09:47:40.009Z,6.40
2019-03-13T09:50:34.607Z,4.50
2019-03-13T09:53:19.028Z,7.17
2019-03-13T09:56:23.788Z,2.83
2019-03-13T09:59:10.785Z,4.23
2019-03-13T10:01:57.852Z,3.73
2019-03-13T10:04:44.560Z,4.97
2019-03-13T10:07:27.817Z,6.50
2019-03-13T10:10:25.981Z,4.47
2019-03-13T10:13:05.075Z,4.17
2019-03-13T10:16:09.288Z,3.80
2019-03-13T10:19:02.480Z,6.30
2019-03-13T10:21:50.174Z,3.80
2019-03-13T10:24:41.555Z,4.03
2019-03-13T10:27:24.826Z,5.00
2019-03-13T10:30:01.961Z,6.77
2019-03-13T10:32:37.939Z,5.40
2019-03-13T10:35:25.645Z,5.53
2019-03-13T10:38:14.352Z,10.63
2019-03-13T10:41:13.265Z,3.10
2019-03-13T10:44:07.535Z,5.77
2019-03-13T10:46:55.097Z,6.83
2019-03-13T10:49:52.974Z,5.63
2019-03-13T10:52:47.583Z,5.67
2019-03-13T10:55:35.686Z,4.27
2019-03-13T10:58:29.739Z,7.70
2019-03-13T11:01:18.519Z,5.63
2019-03-13T11:04:02.047Z,5.17
2019-03-13T11:07:02.802Z,5.97
2019-03-13T11:09:53.653Z,3.17
2019-03-13T11:12:34.661Z,6.13
2019-03-13T11:15:26.040Z,8.30
2019-03-13T11:18:20.563Z,8.40
2019-03-13T11:21:16.410Z,4.40
2019-03-13T11:24:09.312Z,7.63
2019-03-13T11:26:53.855Z,5.27
2019-03-13T11:29:47.913Z,6.60
2019-03-13T11:32:28.188Z,5.10
2019-03-13T11:35:14.782Z,4.80
2019-03-13T11:38:03.193Z,7.23
2019-03-13T11:40:54.759Z,5.80
2019-03-13T11:43:48.856Z,9.47
2019-03-13T11:46:37.303Z,5.37
2019-03-13T11:49:24.122Z,5.20
2019-03-13T11:52:27.387Z,6.77
2019-03-13T11:55:14.558Z,5.37
2019-03-13T11:57:54.357Z,5.07
2019-03-13T12:00:41.329Z,7.83
2019-03-13T12:03:48.560Z,5.00
2019-03-13T12:06:46.086Z,7.27
2019-03-13T12:09:32.984Z,7.37
2019-03-13T12:12:21.004Z,6.33
2019-03-13T12:15:10.519Z,5.20
2019-03-13T12:18:16.966Z,4.77
2019-03-13T12:21:03.507Z,3.80
2019-03-13T12:23:59.310Z,5.63
2019-03-13T12:26:37.855Z,4.20
2019-03-13T12:29:24.482Z,8.10
2019-03-13T12:32:24.829Z,4.80
2019-03-13T12:35:11.518Z,5.40
2019-03-13T12:38:12.846Z,2.93
2019-03-13T12:41:01.147Z,5.87
2019-03-13T12:44:01.820Z,5.73
2019-03-13T12:46:48.967Z,6.13
2019-03-13T12:49:25.370Z,3.50
2019-03-13T12:52:12.254Z,4.37
2019-03-13T12:54:56.036Z,5.73
2019-03-13T12:57:59.802Z,4.30
2019-03-13T13:00:53.177Z,6.27
2019-03-13T13:03:56.596Z,6.13
2019-03-13T13:06:43.659Z,5.00
2019-03-13T13:09:30.694Z,6.93
2019-03-13T13:12:13.509Z,5.53
2019-03-13T13:14:53.446Z,5.47
2019-03-13T13:17:33.455Z,3.47
2019-03-13T13:20:02.653Z,5.57
2019-03-13T13:22:31.853Z,5.77
2019-03-13T13:25:01.097Z,5.67
2019-03-13T13:27:30.263Z,4.37
2019-03-13T13:29:59.505Z,5.33
2019-03-13T13:32:29.450Z,6.47
2019-03-13T13:34:58.664Z,4.50
2019-03-13T13:37:28.631Z,3.53
2019-03-13T13:40:01.428Z,4.57
2019-03-13T13:42:33.228Z,4.33
2019-03-13T13:45:46.018Z,4.97
2019-03-13T13:48:21.009Z,3.23
2019-03-13T13:50:51.160Z,4.27
2019-03-13T13:53:20.975Z,3.60
2019-03-13T13:55:54.780Z,4.33
2019-03-13T13:58:28.514Z,3.67
2019-03-13T14:01:02.294Z,3.17
2019-03-13T14:03:31.787Z,3.63
2019-03-13T14:06:02.713Z,4.10
2019-03-13T14:08:32.281Z,4.30
2019-03-13T14:11:02.109Z,2.53
2019-03-13T14:13:32.158Z,5.80
2019-03-13T14:16:01.456Z,5.20
2019-03-13T14:18:31.497Z,2.33
2019-03-13T14:21:01.511Z,5.53
2019-03-13T14:23:31.300Z,7.90
2019-03-13T14:26:09.692Z,8.00
2019-03-13T14:28:39.635Z,6.37
2019-03-13T14:31:12.867Z,3.00
2019-03-13T14:33:43.101Z,5.20
2019-03-13T14:36:12.544Z,3.67
2019-03-13T14:38:42.022Z,3.47
2019-03-13T14:41:12.116Z,4.63
2019-03-13T14:43:41.887Z,5.53
2019-03-13T14:46:11.127Z,4.47
2019-03-13T14:48:40.349Z,4.77
2019-03-13T14:51:09.772Z,2.77
2019-03-13T14:53:39.037Z,3.40
2019-03-13T14:56:08.728Z,2.77
2019-03-13T14:58:38.869Z,2.77
2019-03-13T15:01:08.313Z,4.60
2019-03-13T15:03:41.253Z,4.10
2019-03-13T15:06:09.293Z,4.63
2019-03-13T15:08:38.575Z,4.07
2019-03-13T15:11:09.482Z,1.80
2019-03-13T15:13:39.305Z,3.70
2019-03-13T15:16:08.469Z,4.13
2019-03-13T15:18:37.697Z,4.77
2019-03-13T15:21:07.723Z,1.83
2019-03-13T15:23:37.170Z,2.80
2019-03-13T15:26:07.233Z,2.30
2019-03-13T15:28:36.553Z,2.60
2019-03-13T15:31:05.712Z,1.80
2019-03-13T15:33:36.664Z,5.00
2019-03-13T15:36:06.437Z,2.87
2019-03-13T15:38:35.652Z,1.83
2019-03-13T15:41:04.833Z,4.83
2019-03-13T15:43:34.577Z,4.00
2019-03-13T15:46:03.787Z,3.77
2019-03-13T15:48:33.340Z,6.03
2019-03-13T15:51:09.986Z,4.37
2019-03-13T15:53:39.175Z,3.23
2019-03-13T15:56:10.255Z,5.90
2019-03-13T15:58:39.452Z,4.27
2019-03-13T16:01:09.561Z,2.13
2019-03-13T16:03:42.946Z,5.33
2019-03-13T16:06:12.369Z,6.00
2019-03-13T16:08:41.824Z,4.20
2019-03-13T16:11:11.009Z,4.57
2019-03-13T16:13:40.446Z,5.37
2019-03-13T16:16:10.223Z,3.90
2019-03-13T16:18:39.403Z,4.07
2019-03-13T16:21:08.979Z,4.20
2019-03-13T16:23:38.946Z,1.83
2019-03-13T16:26:08.650Z,3.93
2019-03-13T16:28:39.729Z,4.37
2019-03-13T16:31:09.890Z,4.30
2019-03-13T16:33:40.199Z,3.70
2019-03-13T16:36:10.947Z,4.30
2019-03-13T16:38:41.851Z,2.27
2019-03-13T16:41:11.544Z,3.00
2019-03-13T16:43:40.741Z,3.63
2019-03-13T16:46:10.029Z,3.50
2019-03-13T16:48:39.567Z,2.47
2019-03-13T16:51:08.817Z,1.77
2019-03-13T16:53:38.005Z,5.07
2019-03-13T16:56:07.447Z,3.13
2019-03-13T16:58:38.809Z,3.13
2019-03-13T17:01:08.070Z,2.87
2019-03-13T17:03:37.231Z,3.47
2019-03-13T17:06:06.441Z,4.03
2019-03-13T17:08:35.602Z,2.43
2019-03-13T17:11:04.830Z,1.67
2019-03-13T17:13:33.993Z,5.10
2019-03-13T17:16:04.178Z,4.97
2019-03-13T17:18:33.617Z,4.27
2019-03-13T17:21:05.641Z,4.80
2019-03-13T17:23:35.595Z,4.93
2019-03-13T17:26:06.826Z,7.23
2019-03-13T17:28:41.534Z,4.23
2019-03-13T17:31:14.894Z,3.77
2019-03-13T17:33:44.094Z,3.80
2019-03-13T17:36:14.040Z,3.00
2019-03-13T17:38:44.541Z,3.07
2019-03-13T17:41:14.517Z,3.97
2019-03-13T17:43:44.467Z,4.80
2019-03-13T17:46:14.424Z,4.03
2019-03-13T17:48:44.279Z,2.17
2019-03-13T17:51:13.491Z,3.83
2019-03-13T17:53:47.074Z,3.90
2019-03-13T17:56:16.813Z,3.30
2019-03-13T17:58:48.030Z,3.07
2019-03-13T18:01:18.032Z,3.90
2019-03-13T18:03:49.851Z,4.80
2019-03-13T18:06:23.566Z,5.80
2019-03-13T18:08:53.049Z,5.40
2019-03-13T18:11:22.206Z,4.60
2019-03-13T18:13:51.397Z,4.33
2019-03-13T18:16:20.898Z,6.33
2019-03-13T18:18:50.102Z,4.93
2019-03-13T18:21:20.589Z,4.53
2019-03-13T18:23:49.605Z,1.80
2019-03-13T18:26:19.584Z,1.50
2019-03-13T18:28:48.767Z,1.27
2019-03-13T18:31:18.194Z,1.30
2019-03-13T18:33:47.385Z,2.80
2019-03-13T18:36:16.797Z,3.20
2019-03-13T18:38:47.700Z,3.53
2019-03-13T18:41:17.423Z,1.37
2019-03-13T18:43:46.865Z,2.20
2019-03-13T18:46:16.883Z,2.87
2019-03-13T18:48:46.051Z,1.97
2019-03-13T18:51:15.991Z,2.90
2019-03-13T18:53:45.193Z,1.80
2019-03-13T18:56:14.753Z,2.67
2019-03-13T18:58:44.347Z,2.83
2019-03-13T19:01:14.743Z,2.73
2019-03-13T19:03:43.913Z,1.97
2019-03-13T19:06:13.451Z,2.13
2019-03-13T19:08:53.130Z,1.87
2019-03-13T19:11:23.217Z,2.90
2019-03-13T19:13:54.219Z,1.53
2019-03-13T19:16:24.385Z,1.60
2019-03-13T19:18:53.622Z,2.77
2019-03-13T19:21:23.698Z,1.27
2019-03-13T19:23:52.905Z,2.33
2019-03-13T19:26:24.801Z,2.47
2019-03-13T19:28:55.939Z,2.90
2019-03-13T19:31:25.572Z,2.23
2019-03-13T19:33:55.169Z,1.00
2019-03-13T19:36:24.516Z,2.13
2019-03-13T19:38:55.135Z,2.93
2019-03-13T19:41:25.163Z,0.90
2019-03-13T19:43:55.378Z,1.70
2019-03-13T19:46:25.992Z,3.33
2019-03-13T19:48:55.939Z,2.97
2019-03-13T19:51:26.040Z,1.43
2019-03-13T19:53:58.809Z,2.43
2019-03-13T19:56:28.209Z,4.20
2019-03-13T19:58:57.741Z,2.43
2019-03-13T20:01:29.067Z,5.70
2019-03-13T20:04:02.547Z,2.10
2019-03-13T20:06:42.234Z,1.97
2019-03-13T20:09:04.935Z,3.60
2019-03-13T20:11:34.125Z,1.70
2019-03-13T20:14:04.068Z,1.20
2019-03-13T20:16:34.027Z,3.43
2019-03-13T20:19:03.764Z,0.90
2019-03-13T20:21:33.241Z,1.57
2019-03-13T20:24:03.196Z,2.20
2019-03-13T20:26:33.197Z,2.50
2019-03-13T20:29:02.605Z,2.53
2019-03-13T20:31:32.084Z,2.33
2019-03-13T20:34:01.608Z,4.23
2019-03-13T20:36:30.848Z,1.27
2019-03-13T20:39:03.643Z,3.70
2019-03-13T20:41:33.680Z,2.17
2019-03-13T20:44:04.006Z,3.10
2019-03-13T20:46:33.479Z,2.53
2019-03-13T20:49:03.207Z,5.33
2019-03-13T20:51:32.580Z,0.97
2019-03-13T20:54:02.641Z,1.17
2019-03-13T20:56:32.836Z,1.43
2019-03-13T20:59:02.316Z,2.90
2019-03-13T21:01:31.849Z,2.93
2019-03-13T21:04:01.713Z,2.73
2019-03-13T21:06:31.279Z,5.30
2019-03-13T21:09:01.276Z,3.40
2019-03-13T21:11:30.706Z,2.60
2019-03-13T21:14:01.008Z,4.07
2019-03-13T21:16:32.260Z,7.77
2019-03-13T21:19:03.520Z,7.53
2019-03-13T21:21:33.273Z,4.47
2019-03-13T21:24:04.723Z,5.00
2019-03-13T21:26:36.564Z,3.60
2019-03-13T21:29:06.327Z,7.67
2019-03-13T21:31:36.078Z,4.23
2019-03-13T21:34:09.024Z,2.97
2019-03-13T21:36:38.442Z,3.53
2019-03-13T21:39:10.975Z,3.70
2019-03-13T21:41:40.610Z,4.90
2019-03-13T21:44:10.319Z,5.33
2019-03-13T21:46:40.007Z,6.03
2019-03-13T21:49:09.251Z,6.47
2019-03-13T21:51:38.796Z,9.83
2019-03-13T21:54:07.982Z,5.17
2019-03-13T21:56:38.391Z,4.90
2019-03-13T21:59:08.969Z,5.07
2019-03-13T22:01:44.021Z,6.37
2019-03-13T22:04:23.658Z,8.53
2019-03-13T22:06:46.587Z,5.70
2019-03-13T22:09:16.836Z,5.37
2019-03-13T22:11:45.980Z,4.90
2019-03-13T22:14:15.186Z,4.37
2019-03-13T22:16:44.355Z,5.40
2019-03-13T22:19:13.904Z,8.73
2019-03-13T22:21:43.094Z,6.60
2019-03-13T22:24:12.318Z,6.27
2019-03-13T22:26:42.505Z,6.80
2019-03-13T22:29:11.710Z,5.13
2019-03-13T22:31:41.554Z,6.30
2019-03-13T22:34:10.743Z,6.67
2019-03-13T22:36:39.897Z,7.80
2019-03-13T22:39:09.960Z,6.10
2019-03-13T22:41:39.147Z,6.37
2019-03-13T22:44:08.311Z,6.07
2019-03-13T22:46:37.504Z,5.63
2019-03-13T22:49:06.668Z,8.53
2019-03-13T22:51:36.436Z,8.57
2019-03-13T22:54:05.867Z,9.30
2019-03-13T22:56:35.152Z,9.63
2019-03-13T22:59:04.681Z,8.47
2019-03-13T23:01:34.147Z,8.87
2019-03-13T23:04:04.087Z,7.50
2019-03-13T23:06:35.029Z,8.87
2019-03-13T23:09:06.815Z,7.50
2019-03-13T23:11:36.984Z,11.10
2019-03-13T23:14:06.145Z,8.87
2019-03-13T23:16:36.006Z,8.07
2019-03-13T23:19:05.958Z,9.67
2019-03-13T23:21:35.918Z,11.90
2019-03-13T23:24:06.206Z,8.77
2019-03-13T23:26:36.892Z,8.53
2019-03-13T23:29:06.823Z,9.93
2019-03-13T23:31:36.352Z,10.37
2019-03-13T23:34:06.118Z,8.83
2019-03-13T23:36:35.346Z,9.60
2019-03-13T23:39:06.458Z,6.70
2019-03-13T23:41:36.497Z,9.13
2019-03-13T23:44:06.258Z,10.40
2019-03-13T23:46:36.278Z,10.27
2019-03-13T23:49:05.760Z,12.67
2019-03-13T23:51:36.087Z,10.20
2019-03-13T23:54:05.236Z,12.27
2019-03-13T23:56:35.190Z,14.00
2019-03-13T23:59:05.487Z,7.97
